Time;durP1;ratioP1;P1;durP2;ratioP2;P2;SDS_P1;SDS_P2;PMS_P1;PMS_P2;Temp;Humidity;BMP_temperature;BMP_pressure;BME280_temperature;BME280_humidity;BME280_pressure;Samples;Min_cycle;Max_cycle;Signal;HPM_P1;HPM_P2
2021/04/28 00:00:42;;;;;;;2.78;1.30;;;;;;;-148.56;100.00;61375.16;4997877;28;20034;-31
2021/04/28 00:04:07;;;;;;;2.92;0.98;;;;;;;-148.56;100.00;61375.16;4996452;28;20061;-28
2021/04/28 00:07:31;;;;;;;2.72;1.38;;;;;;;-148.56;100.00;61375.16;4976105;28;20503;-30
2021/04/28 00:10:55;;;;;;;2.65;1.13;;;;;;;-148.56;100.00;61375.16;4993489;28;20021;-30
2021/04/28 00:14:19;;;;;;;4.03;1.25;;;;;;;-148.56;100.00;61375.16;4992139;28;20132;-26
2021/04/28 00:17:43;;;;;;;3.50;1.10;;;;;;;-148.56;100.00;61375.16;4999359;28;20618;-25
2021/04/28 00:21:09;;;;;;;2.30;1.20;;;;;;;-148.56;100.00;61375.16;4992777;28;20119;-29
2021/04/28 00:24:32;;;;;;;2.47;1.05;;;;;;;-148.56;100.00;61375.16;4999828;28;20065;-28
2021/04/28 00:27:56;;;;;;;2.38;1.05;;;;;;;-148.56;100.00;61375.16;4997583;28;20026;-29
2021/04/28 00:31:20;;;;;;;1.25;1.00;;;;;;;-148.56;100.00;61375.16;4997304;28;20057;-27
2021/04/28 00:34:44;;;;;;;2.25;1.10;;;;;;;-148.56;100.00;61375.16;5000910;28;20083;-33
2021/04/28 00:38:08;;;;;;;2.30;1.23;;;;;;;-148.56;100.00;61375.16;4994728;28;20084;-30
2021/04/28 00:41:33;;;;;;;3.72;1.40;;;;;;;-148.56;100.00;61375.16;4992407;28;20115;-31
2021/04/28 00:44:56;;;;;;;3.30;1.00;;;;;;;-148.56;100.00;61375.16;4990120;28;20033;-30
2021/04/28 00:48:20;;;;;;;2.05;1.08;;;;;;;-148.56;100.00;61375.16;4993407;28;20032;-29
2021/04/28 00:51:44;;;;;;;1.50;1.05;;;;;;;-148.56;100.00;61375.16;4997980;28;20034;-30
2021/04/28 00:55:09;;;;;;;2.30;1.27;;;;;;;-148.56;100.00;61375.16;4994651;28;20029;-32
2021/04/28 00:58:33;;;;;;;1.92;1.20;;;;;;;-148.56;100.00;61375.16;4998523;28;20038;-32
2021/04/28 01:01:56;;;;;;;4.68;1.10;;;;;;;-148.56;100.00;61375.16;5002843;28;20515;-29
2021/04/28 01:05:20;;;;;;;2.85;1.33;;;;;;;-148.56;100.00;61375.16;4991001;28;20080;-27
2021/04/28 01:08:45;;;;;;;3.25;1.42;;;;;;;-148.56;100.00;61375.16;4986656;28;20034;-30
2021/04/28 01:12:09;;;;;;;2.70;1.00;;;;;;;-148.56;100.00;61375.16;4995297;28;20053;-26
2021/04/28 01:15:33;;;;;;;2.35;1.20;;;;;;;-148.56;100.00;61375.16;4973382;28;20037;-27
2021/04/28 01:18:57;;;;;;;2.67;1.00;;;;;;;-148.56;100.00;61375.16;4997627;28;20149;-30
2021/04/28 01:22:21;;;;;;;2.88;1.17;;;;;;;-148.56;100.00;61375.16;4993371;28;20084;-31
2021/04/28 01:25:45;;;;;;;2.50;1.20;;;;;;;-148.56;100.00;61375.16;4995226;28;20400;-27
2021/04/28 01:29:12;;;;;;;3.63;1.00;;;;;;;-148.56;100.00;61375.16;4999973;28;20044;-31
2021/04/28 01:32:35;;;;;;;2.10;0.98;;;;;;;-148.56;100.00;61375.16;4997017;28;20092;-31
2021/04/28 01:36:00;;;;;;;2.30;0.95;;;;;;;-148.56;100.00;61375.16;4984869;28;20034;-29
2021/04/28 01:39:24;;;;;;;1.65;0.80;;;;;;;-148.56;100.00;61375.16;4988561;28;20088;-27
2021/04/28 01:42:48;;;;;;;1.83;0.90;;;;;;;-148.56;100.00;61375.16;4995097;28;20148;-29
2021/04/28 01:46:12;;;;;;;2.67;1.02;;;;;;;-148.56;100.00;61375.16;4994875;28;20030;-27
2021/04/28 01:49:36;;;;;;;3.00;1.27;;;;;;;-148.56;100.00;61375.16;4986962;28;20141;-29
2021/04/28 01:53:00;;;;;;;1.88;1.08;;;;;;;-148.56;100.00;61375.16;4975796;28;20018;-30
2021/04/28 01:56:24;;;;;;;1.98;1.00;;;;;;;-148.56;100.00;61375.16;4980028;28;20097;-31
2021/04/28 01:59:48;;;;;;;1.77;1.17;;;;;;;-148.56;100.00;61375.16;4983101;28;20526;-29
2021/04/28 02:03:12;;;;;;;1.67;1.17;;;;;;;-148.56;100.00;61375.16;4988523;28;20132;-28
2021/04/28 02:06:39;;;;;;;1.85;1.10;;;;;;;-148.56;100.00;61375.16;4972755;28;20030;-30
2021/04/28 02:10:04;;;;;;;2.03;1.05;;;;;;;-148.56;100.00;61375.16;4987468;28;20084;-32
2021/04/28 02:13:31;;;;;;;1.48;1.20;;;;;;;-148.56;100.00;61375.16;4970941;28;20836;-26
2021/04/28 02:16:55;;;;;;;5.65;1.27;;;;;;;-148.56;100.00;61375.16;4976534;28;20026;-30
2021/04/28 02:20:19;;;;;;;3.38;1.35;;;;;;;-148.56;100.00;61375.16;4977934;28;20026;-26
2021/04/28 02:23:43;;;;;;;2.13;1.10;;;;;;;-148.56;100.00;61375.16;4958496;28;20621;-33
2021/04/28 02:27:06;;;;;;;2.35;1.20;;;;;;;-148.56;100.00;61375.16;4980581;28;20786;-31
2021/04/28 02:30:31;;;;;;;1.35;0.88;;;;;;;-148.56;100.00;61375.16;4976373;28;20049;-32
2021/04/28 02:33:55;;;;;;;4.47;1.15;;;;;;;-148.56;100.00;61375.16;4996708;28;20029;-28
2021/04/28 02:37:20;;;;;;;2.03;1.02;;;;;;;-148.56;100.00;61375.16;4989215;28;20926;-31
2021/04/28 02:40:44;;;;;;;2.30;0.90;;;;;;;-148.56;100.00;61375.16;4992686;28;20030;-28
2021/04/28 02:44:11;;;;;;;3.55;1.05;;;;;;;-148.56;100.00;61375.16;4995469;28;20792;-28
2021/04/28 02:47:35;;;;;;;0.93;0.82;;;;;;;-148.56;100.00;61375.16;4981758;28;20121;-31
2021/04/28 02:51:03;;;;;;;3.42;1.10;;;;;;;-148.56;100.00;61375.16;4970777;28;20052;-29
2021/04/28 02:54:27;;;;;;;1.40;0.98;;;;;;;-148.56;100.00;61375.16;4995354;28;20030;-30
2021/04/28 02:57:51;;;;;;;1.35;1.00;;;;;;;-148.56;100.00;61375.16;5002577;28;20088;-27
2021/04/28 03:01:16;;;;;;;1.95;1.00;;;;;;;-148.56;100.00;61375.16;4965052;28;20080;-31
2021/04/28 03:04:40;;;;;;;1.40;1.00;;;;;;;-148.56;100.00;61375.16;4975599;28;20076;-30
2021/04/28 03:08:04;;;;;;;1.33;0.77;;;;;;;-148.56;100.00;61375.16;4975604;28;20036;-29
2021/04/28 03:11:28;;;;;;;3.20;1.15;;;;;;;-148.56;100.00;61375.16;4992909;28;20029;-25
2021/04/28 03:14:52;;;;;;;1.35;0.77;;;;;;;-148.56;100.00;61375.16;4991789;28;20042;-30
2021/04/28 03:18:16;;;;;;;1.58;1.00;;;;;;;-148.56;100.00;61375.16;4992100;28;20038;-33
2021/04/28 03:21:42;;;;;;;4.63;1.30;;;;;;;-148.56;100.00;61375.16;4996931;28;20177;-29
2021/04/28 03:25:07;;;;;;;2.33;1.20;;;;;;;-148.56;100.00;61375.16;4987907;28;20057;-31
2021/04/28 03:28:31;;;;;;;2.25;1.10;;;;;;;-148.56;100.00;61375.16;4987883;28;20044;-28
2021/04/28 03:31:55;;;;;;;1.95;0.93;;;;;;;-148.56;100.00;61375.16;4996643;28;20026;-26
2021/04/28 03:35:18;;;;;;;1.48;0.80;;;;;;;-148.56;100.00;61375.16;4993774;28;20038;-28
2021/04/28 03:38:42;;;;;;;2.47;1.30;;;;;;;-148.56;100.00;61375.16;4995504;28;20030;-30
2021/04/28 03:42:06;;;;;;;2.35;1.00;;;;;;;-148.56;100.00;61375.16;4990377;28;20572;-29
2021/04/28 03:45:31;;;;;;;2.17;0.90;;;;;;;-148.56;100.00;61375.16;4994865;28;21138;-27
2021/04/28 03:48:55;;;;;;;3.08;0.82;;;;;;;-148.56;100.00;61375.16;5000114;28;20077;-28
2021/04/28 03:52:19;;;;;;;2.70;0.90;;;;;;;-148.56;100.00;61375.16;4989944;28;20030;-29
2021/04/28 03:55:43;;;;;;;2.58;0.82;;;;;;;-148.56;100.00;61375.16;4995124;28;20044;-30
2021/04/28 03:59:09;;;;;;;1.55;0.80;;;;;;;-148.56;100.00;61375.16;4993968;28;20037;-27
2021/04/28 04:02:33;;;;;;;1.67;0.82;;;;;;;-148.56;100.00;61375.16;4995591;28;20040;-32
2021/04/28 04:05:57;;;;;;;1.58;0.80;;;;;;;-148.56;100.00;61375.16;4998083;28;20038;-30
2021/04/28 04:09:21;;;;;;;2.13;1.13;;;;;;;-148.56;100.00;61375.16;4993119;28;20485;-26
2021/04/28 04:12:45;;;;;;;2.13;0.80;;;;;;;-148.56;100.00;61375.16;4993584;28;20437;-26
2021/04/28 04:16:09;;;;;;;2.17;0.95;;;;;;;-148.56;100.00;61375.16;4993575;28;20030;-33
2021/04/28 04:19:33;;;;;;;1.35;0.90;;;;;;;-148.56;100.00;61375.16;4993271;28;20456;-32
2021/04/28 04:22:57;;;;;;;1.77;1.00;;;;;;;-148.56;100.00;61375.16;4999343;28;20040;-28
2021/04/28 04:26:21;;;;;;;1.25;0.80;;;;;;;-148.56;100.00;61375.16;4994058;28;20101;-33
2021/04/28 04:29:44;;;;;;;1.13;0.70;;;;;;;-148.56;100.00;61375.16;4994009;28;20053;-28
2021/04/28 04:33:10;;;;;;;1.80;0.90;;;;;;;-148.56;100.00;61375.16;5000859;28;20309;-31
2021/04/28 04:36:34;;;;;;;1.65;0.80;;;;;;;-148.56;100.00;61375.16;4995458;28;20507;-28
2021/04/28 04:39:58;;;;;;;3.65;0.80;;;;;;;-148.56;100.00;61375.16;4997426;28;20444;-29
2021/04/28 04:43:22;;;;;;;1.20;0.70;;;;;;;-148.56;100.00;61375.16;4976994;28;20038;-24
2021/04/28 04:46:46;;;;;;;4.93;0.85;;;;;;;-148.56;100.00;61375.16;4994874;28;20803;-30
2021/04/28 04:50:10;;;;;;;3.30;1.20;;;;;;;-148.56;100.00;61375.16;4993730;28;20578;-30
2021/04/28 04:53:34;;;;;;;1.35;0.80;;;;;;;-148.56;100.00;61375.16;4996107;28;20091;-29
2021/04/28 04:56:58;;;;;;;1.63;0.80;;;;;;;-148.56;100.00;61375.16;4991837;28;20095;-31
2021/04/28 05:00:22;;;;;;;2.35;0.90;;;;;;;-148.56;100.00;61375.16;4995375;28;20034;-30
2021/04/28 05:03:46;;;;;;;1.50;0.90;;;;;;;-148.56;100.00;61375.16;5004973;28;20072;-31
2021/04/28 05:07:10;;;;;;;0.82;0.75;;;;;;;-148.56;100.00;61375.16;4995310;28;20034;-29
2021/04/28 05:10:34;;;;;;;3.00;0.85;;;;;;;-148.56;100.00;61375.16;5000486;28;20053;-27
2021/04/28 05:13:57;;;;;;;2.80;1.00;;;;;;;-148.56;100.00;61375.16;5001498;28;20041;-28
2021/04/28 05:17:21;;;;;;;2.83;0.80;;;;;;;-148.56;100.00;61375.16;4993293;28;20823;-28
2021/04/28 05:20:45;;;;;;;1.90;1.20;;;;;;;-148.56;100.00;61375.16;4996781;28;20091;-31
2021/04/28 05:24:09;;;;;;;1.90;0.88;;;;;;;-148.56;100.00;61375.16;4994168;28;20025;-31
2021/04/28 05:27:35;;;;;;;1.70;1.00;;;;;;;-148.56;100.00;61375.16;4996296;28;20160;-30
2021/04/28 05:30:59;;;;;;;0.80;0.73;;;;;;;-148.56;100.00;61375.16;4991400;28;20121;-30
2021/04/28 05:34:23;;;;;;;0.88;0.85;;;;;;;-148.56;100.00;61375.16;5000828;28;21012;-28
2021/04/28 05:37:47;;;;;;;1.33;0.90;;;;;;;-148.56;100.00;61375.16;4996953;28;20041;-26
2021/04/28 05:41:11;;;;;;;1.30;0.70;;;;;;;-148.56;100.00;61375.16;4990463;28;20128;-28
2021/04/28 05:44:35;;;;;;;1.85;0.90;;;;;;;-148.56;100.00;61375.16;4993681;28;20105;-27
2021/04/28 05:47:59;;;;;;;1.33;1.05;;;;;;;-148.56;100.00;61375.16;4994049;28;20095;-25
2021/04/28 05:51:23;;;;;;;11.18;1.92;;;;;;;-148.56;100.00;61375.16;4998031;28;20021;-24
2021/04/28 05:54:47;;;;;;;12.07;1.95;;;;;;;-148.56;100.00;61375.16;4996086;28;20115;-30
2021/04/28 05:58:11;;;;;;;9.57;1.88;;;;;;;-148.56;100.00;61375.16;5000529;28;20038;-28
2021/04/28 06:01:35;;;;;;;13.00;1.73;;;;;;;-148.56;100.00;61375.16;4987016;28;20976;-29
2021/04/28 06:04:59;;;;;;;9.57;1.73;;;;;;;-148.56;100.00;61375.16;4988499;28;20037;-30
2021/04/28 06:08:22;;;;;;;4.25;1.73;;;;;;;-148.56;100.00;61375.16;4991218;28;20030;-28
2021/04/28 06:11:46;;;;;;;4.63;1.30;;;;;;;-148.56;100.00;61375.16;4992489;28;20033;-29
2021/04/28 06:15:11;;;;;;;3.72;1.40;;;;;;;-148.56;100.00;61375.16;4984357;28;20042;-30
2021/04/28 06:18:35;;;;;;;3.67;1.60;;;;;;;-148.56;100.00;61375.16;4989189;28;20395;-25
2021/04/28 06:21:58;;;;;;;2.85;1.45;;;;;;;-148.56;100.00;61375.16;4990655;28;20032;-33
2021/04/28 06:25:22;;;;;;;8.38;3.67;;;;;;;-148.56;100.00;61375.16;4991320;28;20033;-31
2021/04/28 06:28:46;;;;;;;16.70;4.00;;;;;;;-148.56;100.00;61375.16;4992854;28;20029;-29
2021/04/28 06:32:10;;;;;;;10.98;4.13;;;;;;;-148.56;100.00;61375.16;4989965;28;20034;-31
2021/04/28 06:35:34;;;;;;;9.43;3.58;;;;;;;-148.56;100.00;61375.16;4992164;28;20370;-28
2021/04/28 06:38:59;;;;;;;10.38;3.22;;;;;;;-148.56;100.00;61375.16;4996786;28;20033;-30
2021/04/28 06:42:23;;;;;;;8.95;1.95;;;;;;;-148.56;100.00;61375.16;4990541;28;20032;-30
2021/04/28 06:45:46;;;;;;;7.20;1.65;;;;;;;-148.56;100.00;61375.16;4989749;28;20062;-31
2021/04/28 06:49:13;;;;;;;5.55;2.00;;;;;;;-148.56;100.00;61375.16;4991478;28;20119;-34
2021/04/28 06:52:37;;;;;;;4.60;2.10;;;;;;;-148.56;100.00;61375.16;4991372;28;20653;-30
2021/04/28 06:56:01;;;;;;;4.22;2.00;;;;;;;-148.56;100.00;61375.16;4988917;28;20038;-29
2021/04/28 06:59:25;;;;;;;6.63;1.80;;;;;;;-148.56;100.00;61375.16;4989898;28;20558;-31
2021/04/28 07:02:49;;;;;;;5.95;1.92;;;;;;;-148.56;100.00;61375.16;4990740;28;21975;-30
2021/04/28 07:06:13;;;;;;;4.05;1.95;;;;;;;-148.56;100.00;61375.16;4990982;28;20480;-29
2021/04/28 07:09:37;;;;;;;3.53;1.90;;;;;;;-148.56;100.00;61375.16;4991885;28;20091;-25
2021/04/28 07:13:01;;;;;;;3.80;1.85;;;;;;;-148.56;100.00;61375.16;4982083;28;20045;-30
2021/04/28 07:16:25;;;;;;;6.28;1.48;;;;;;;-148.56;100.00;61375.16;4992587;28;20030;-32
2021/04/28 07:19:49;;;;;;;3.63;1.88;;;;;;;-148.56;100.00;61375.16;4993550;28;20136;-28
2021/04/28 07:23:13;;;;;;;3.45;1.70;;;;;;;-148.56;100.00;61375.16;4990416;28;20033;-30
2021/04/28 07:26:36;;;;;;;3.65;1.50;;;;;;;-148.56;100.00;61375.16;4974491;28;20555;-27
2021/04/28 07:30:00;;;;;;;2.88;1.73;;;;;;;-148.56;100.00;61375.16;4982252;28;20103;-31
2021/04/28 07:33:24;;;;;;;28.23;4.35;;;;;;;-148.56;100.00;61375.16;4994642;28;20641;-28
2021/04/28 07:36:48;;;;;;;19.35;5.43;;;;;;;-148.56;100.00;61375.16;4996998;28;20657;-31
2021/04/28 07:40:12;;;;;;;21.10;9.15;;;;;;;-148.56;100.00;61375.16;4993379;28;20125;-28
2021/04/28 07:43:36;;;;;;;25.83;8.63;;;;;;;-148.56;100.00;61375.16;4987596;28;20551;-29
2021/04/28 07:47:00;;;;;;;26.65;9.10;;;;;;;-148.56;100.00;61375.16;4982281;28;20038;-30
2021/04/28 07:50:24;;;;;;;24.45;8.07;;;;;;;-148.56;100.00;61375.16;4991593;28;20026;-29
2021/04/28 07:53:48;;;;;;;24.25;8.82;;;;;;;-148.56;100.00;61375.16;4979250;28;20112;-33
2021/04/28 07:57:13;;;;;;;20.95;7.65;;;;;;;-148.56;100.00;61375.16;4988428;28;20032;-33
2021/04/28 08:00:36;;;;;;;16.95;7.90;;;;;;;-148.56;100.00;61375.16;4992259;28;20515;-30
2021/04/28 08:04:01;;;;;;;18.70;7.90;;;;;;;-148.56;100.00;61375.16;4995438;28;20049;-30
2021/04/28 08:07:25;;;;;;;17.38;8.02;;;;;;;-148.56;100.00;61375.16;4994446;28;20029;-28
2021/04/28 08:10:49;;;;;;;18.35;7.63;;;;;;;-148.56;100.00;61375.16;4994444;28;20057;-32
2021/04/28 08:14:12;;;;;;;14.95;7.82;;;;;;;-148.56;100.00;61375.16;4995645;28;20052;-25
2021/04/28 08:17:38;;;;;;;18.33;7.90;;;;;;;-148.56;100.00;61375.16;4997259;28;20128;-27
2021/04/28 08:21:02;;;;;;;12.98;7.72;;;;;;;-148.56;100.00;61375.16;5000165;28;20395;-25
2021/04/28 08:24:26;;;;;;;17.08;8.02;;;;;;;-148.56;100.00;61375.16;4963912;28;20022;-29
2021/04/28 08:27:50;;;;;;;19.38;7.05;;;;;;;-148.56;100.00;61375.16;5002663;28;20038;-24
2021/04/28 08:31:14;;;;;;;9.35;6.53;;;;;;;-148.56;100.00;61375.16;4996933;28;20036;-30
2021/04/28 08:34:38;;;;;;;9.90;6.78;;;;;;;-148.56;100.00;61375.16;4997552;28;20550;-29
2021/04/28 08:38:02;;;;;;;15.60;7.35;;;;;;;-148.56;100.00;61375.16;4979698;28;20383;-30
2021/04/28 08:41:26;;;;;;;16.95;5.95;;;;;;;-148.56;100.00;61375.16;5000719;28;20435;-30
2021/04/28 08:44:50;;;;;;;11.30;6.28;;;;;;;-148.56;100.00;61375.16;5002559;28;20034;-30
2021/04/28 08:48:14;;;;;;;12.32;6.22;;;;;;;-148.56;100.00;61375.16;4981064;28;20543;-28
2021/04/28 08:51:38;;;;;;;7.22;3.80;;;;;;;-148.56;100.00;61375.16;5001450;28;20080;-33
2021/04/28 08:55:03;;;;;;;8.18;3.75;;;;;;;-148.56;100.00;61375.16;4988283;28;20030;-33
2021/04/28 08:58:27;;;;;;;8.85;5.38;;;;;;;-148.56;100.00;61375.16;5001756;28;20029;-26
2021/04/28 09:01:50;;;;;;;12.25;5.70;;;;;;;-148.56;100.00;61375.16;4989983;28;20472;-30
2021/04/28 09:05:15;;;;;;;10.75;4.43;;;;;;;-148.56;100.00;61375.16;4996569;28;20030;-27
2021/04/28 09:08:49;;;;;;;11.32;6.22;;;;;;;-148.56;100.00;61375.16;5002230;28;20044;-30
2021/04/28 09:12:30;;;;;;;14.18;6.25;;;;;;;-148.56;100.00;61375.16;4997355;28;20030;-29
2021/04/28 09:15:54;;;;;;;12.07;5.75;;;;;;;-148.56;100.00;61375.16;4981890;28;20034;-31
2021/04/28 09:19:19;;;;;;;11.70;5.25;;;;;;;-148.56;100.00;61375.16;4999484;28;20022;-29
2021/04/28 09:22:50;;;;;;;10.18;5.40;;;;;;;-148.56;100.00;61375.16;4999638;28;20021;-33
2021/04/28 09:26:31;;;;;;;9.25;4.70;;;;;;;-148.56;100.00;61375.16;4998191;28;20040;-34
2021/04/28 09:29:55;;;;;;;9.55;4.68;;;;;;;-148.56;100.00;61375.16;4997578;28;20426;-31
2021/04/28 09:33:27;;;;;;;8.50;3.83;;;;;;;-148.56;100.00;61375.16;4992180;28;20053;-29
2021/04/28 09:37:01;;;;;;;11.88;3.83;;;;;;;-148.56;100.00;61375.16;4980418;28;20033;-26
2021/04/28 09:40:38;;;;;;;14.68;4.53;;;;;;;-148.56;100.00;61375.16;4992109;28;20057;-25
2021/04/28 09:44:03;;;;;;;10.45;4.05;;;;;;;-148.56;100.00;61375.16;4992880;28;20395;-29
2021/04/28 09:47:27;;;;;;;7.78;3.92;;;;;;;-148.56;100.00;61375.16;4993224;28;20038;-27
2021/04/28 09:51:02;;;;;;;15.32;4.10;;;;;;;-148.56;100.00;61375.16;4974045;28;20119;-29
2021/04/28 09:54:29;;;;;;;6.88;3.55;;;;;;;-148.56;100.00;61375.16;4991213;28;20069;-26
2021/04/28 09:57:54;;;;;;;7.65;2.75;;;;;;;-148.56;100.00;61375.16;4994362;28;20060;-29
2021/04/28 10:01:41;;;;;;;5.88;3.00;;;;;;;-148.56;100.00;61375.16;4990735;28;20877;-26
2021/04/28 10:05:25;;;;;;;4.05;2.70;;;;;;;-148.56;100.00;61375.16;4992731;28;20128;-29
2021/04/28 10:09:29;;;;;;;3.85;2.22;;;;;;;-148.56;100.00;61375.16;4993339;28;20084;-28
2021/04/28 10:12:53;;;;;;;7.93;3.50;;;;;;;-148.56;100.00;61375.16;4994883;28;20072;-34
2021/04/28 10:16:17;;;;;;;13.13;3.30;;;;;;;-148.56;100.00;61375.16;4992424;28;20041;-30
2021/04/28 10:19:41;;;;;;;4.72;2.50;;;;;;;-148.56;100.00;61375.16;4987597;28;20652;-29
2021/04/28 10:23:14;;;;;;;7.47;3.25;;;;;;;-148.56;100.00;61375.16;4972839;28;20033;-29
2021/04/28 10:26:39;;;;;;;8.45;2.78;;;;;;;-148.56;100.00;61375.16;4975423;28;20057;-30
2021/04/28 10:30:04;;;;;;;6.55;3.47;;;;;;;-148.56;100.00;61375.16;4974807;28;20054;-29
2021/04/28 10:33:28;;;;;;;6.10;3.05;;;;;;;-148.56;100.00;61375.16;4982007;28;20056;-24
2021/04/28 10:36:53;;;;;;;8.02;2.67;;;;;;;-148.56;100.00;61375.16;4973451;28;20122;-27
2021/04/28 10:40:19;;;;;;;6.72;3.00;;;;;;;-148.56;100.00;61375.16;4975505;28;20030;-25
2021/04/28 10:43:42;;;;;;;4.50;2.30;;;;;;;-148.56;100.00;61375.16;4990553;28;20916;-31
2021/04/28 10:47:26;;;;;;;5.32;2.60;;;;;;;-148.56;100.00;61375.16;4988776;28;20129;-31
2021/04/28 10:50:59;;;;;;;7.78;2.28;;;;;;;-148.56;100.00;61375.16;4991578;28;20080;-28
2021/04/28 10:54:24;;;;;;;4.30;2.50;;;;;;;-148.56;100.00;61375.16;4969440;28;20078;-29
2021/04/28 10:58:14;;;;;;;2.58;1.92;;;;;;;-148.56;100.00;61375.16;4974382;28;20037;-27
2021/04/28 11:01:38;;;;;;;5.10;1.90;;;;;;;-148.56;100.00;61375.16;4971434;28;20062;-28
2021/04/28 11:05:06;;;;;;;3.95;2.50;;;;;;;-148.56;100.00;61375.16;4946041;28;20030;-26
2021/04/28 11:08:39;;;;;;;4.32;2.60;;;;;;;-148.56;100.00;61375.16;4961888;28;20038;-29
2021/04/28 11:12:11;;;;;;;3.33;2.15;;;;;;;-148.56;100.00;61375.16;4972636;28;20054;-30
2021/04/28 11:15:49;;;;;;;4.45;2.05;;;;;;;-148.56;100.00;61375.16;4979749;28;20034;-28
2021/04/28 11:19:35;;;;;;;3.35;1.80;;;;;;;-148.56;100.00;61375.16;4969829;28;20034;-31
2021/04/28 11:23:20;;;;;;;7.88;1.92;;;;;;;-148.56;100.00;61375.16;4970363;28;20022;-28
2021/04/28 11:26:51;;;;;;;3.50;2.05;;;;;;;-148.56;100.00;61375.16;4970990;28;20090;-31
2021/04/28 11:30:18;;;;;;;4.68;2.78;;;;;;;-148.56;100.00;61375.16;4970268;28;20026;-29
2021/04/28 11:34:04;;;;;;;9.57;2.90;;;;;;;-148.56;100.00;61375.16;4971279;28;20505;-25
2021/04/28 11:37:28;;;;;;;5.55;3.40;;;;;;;-148.56;100.00;61375.16;4989761;28;20041;-26
2021/04/28 11:41:06;;;;;;;8.57;3.08;;;;;;;-148.56;100.00;61375.16;4976549;28;20394;-27
2021/04/28 11:44:38;;;;;;;4.53;2.00;;;;;;;-148.56;100.00;61375.16;4971498;28;20038;-29
2021/04/28 11:48:21;;;;;;;5.93;2.90;;;;;;;-148.56;100.00;61375.16;4968898;28;20065;-26
2021/04/28 11:51:55;;;;;;;7.85;3.70;;;;;;;-148.56;100.00;61375.16;4979809;28;20116;-23
2021/04/28 11:55:22;;;;;;;9.30;3.47;;;;;;;-148.56;100.00;61375.16;4982813;28;20025;-26
2021/04/28 11:58:46;;;;;;;3.67;2.10;;;;;;;-148.56;100.00;61375.16;4980417;28;20026;-27
2021/04/28 12:02:10;;;;;;;4.13;2.00;;;;;;;-148.56;100.00;61375.16;4977162;28;20420;-26
2021/04/28 12:05:37;;;;;;;4.88;2.70;;;;;;;-148.56;100.00;61375.16;4982639;28;20034;-32
2021/04/28 12:09:02;;;;;;;6.65;2.28;;;;;;;-148.56;100.00;61375.16;4983546;28;20045;-28
2021/04/28 12:12:29;;;;;;;8.70;3.10;;;;;;;-148.56;100.00;61375.16;4979006;28;20038;-27
2021/04/28 12:16:11;;;;;;;4.13;2.47;;;;;;;-148.56;100.00;61375.16;4982343;28;20045;-27
2021/04/28 12:19:35;;;;;;;7.72;3.40;;;;;;;-148.56;100.00;61375.16;4980989;28;20069;-28
2021/04/28 12:23:02;;;;;;;6.18;3.20;;;;;;;-148.56;100.00;61375.16;4980554;28;20678;-28
2021/04/28 12:26:26;;;;;;;6.55;2.75;;;;;;;-148.56;100.00;61375.16;4975567;28;20124;-25
2021/04/28 12:29:50;;;;;;;5.40;2.53;;;;;;;-148.56;100.00;61375.16;4973811;28;20041;-27
2021/04/28 12:33:15;;;;;;;2.72;1.98;;;;;;;-148.56;100.00;61375.16;4981506;28;20088;-30
2021/04/28 12:36:39;;;;;;;5.03;2.20;;;;;;;-148.56;100.00;61375.16;4983109;28;20082;-29
2021/04/28 12:40:07;;;;;;;11.88;3.15;;;;;;;-148.56;100.00;61375.16;4998315;28;20030;-31
2021/04/28 12:43:34;;;;;;;6.35;2.55;;;;;;;-148.56;100.00;61375.16;4980867;28;20026;-28
2021/04/28 12:47:07;;;;;;;8.20;2.85;;;;;;;-148.56;100.00;61375.16;4978099;28;20336;-30
2021/04/28 12:50:32;;;;;;;7.43;2.47;;;;;;;-148.56;100.00;61375.16;4980063;28;20121;-25
2021/04/28 12:54:02;;;;;;;6.30;2.55;;;;;;;-148.56;100.00;61375.16;4980862;28;20485;-26
2021/04/28 12:57:50;;;;;;;9.23;2.92;;;;;;;-148.56;100.00;61375.16;4979113;28;20044;-28
2021/04/28 13:01:16;;;;;;;4.40;2.47;;;;;;;-148.56;100.00;61375.16;4979528;28;20031;-28
2021/04/28 13:04:46;;;;;;;6.88;2.33;;;;;;;-148.56;100.00;61375.16;4987713;28;20045;-30
2021/04/28 13:08:23;;;;;;;5.93;2.35;;;;;;;-148.56;100.00;61375.16;4991705;28;20510;-28
2021/04/28 13:11:56;;;;;;;5.95;2.90;;;;;;;-148.56;100.00;61375.16;4981707;28;20034;-32
2021/04/28 13:15:20;;;;;;;8.30;3.13;;;;;;;-148.56;100.00;61375.16;4968171;28;20061;-26
2021/04/28 13:18:53;;;;;;;7.45;3.10;;;;;;;-148.56;100.00;61375.16;4980495;28;20038;-28
2021/04/28 13:22:18;;;;;;;6.63;2.80;;;;;;;-148.56;100.00;61375.16;4965363;28;20045;-29
2021/04/28 13:25:46;;;;;;;6.80;2.50;;;;;;;-148.56;100.00;61375.16;4968803;28;20105;-27
2021/04/28 13:29:56;;;;;;;6.50;2.85;;;;;;;-148.56;100.00;61375.16;4967668;28;20922;-28
2021/04/28 13:33:35;;;;;;;5.03;2.33;;;;;;;-148.56;100.00;61375.16;4951993;28;20042;-32
2021/04/28 13:36:59;;;;;;;8.30;2.40;;;;;;;-148.56;100.00;61375.16;4973098;28;20054;-28
2021/04/28 13:40:24;;;;;;;6.80;2.42;;;;;;;-148.56;100.00;61375.16;4973937;28;20030;-30
2021/04/28 13:43:48;;;;;;;4.07;2.05;;;;;;;-148.56;100.00;61375.16;4970359;28;20023;-27
2021/04/28 13:47:12;;;;;;;7.53;2.63;;;;;;;-148.56;100.00;61375.16;4976897;28;20061;-28
2021/04/28 13:50:36;;;;;;;4.50;2.70;;;;;;;-148.56;100.00;61375.16;4976767;28;20038;-25
2021/04/28 13:54:01;;;;;;;8.23;3.13;;;;;;;-148.56;100.00;61375.16;4970281;28;20046;-30
2021/04/28 13:57:24;;;;;;;4.40;2.85;;;;;;;-148.56;100.00;61375.16;4969843;28;20037;-28
2021/04/28 14:00:48;;;;;;;5.45;2.90;;;;;;;-148.56;100.00;61375.16;4971066;28;20030;-29
2021/04/28 14:04:13;;;;;;;10.40;2.63;;;;;;;-148.56;100.00;61375.16;4966430;28;20744;-27
2021/04/28 14:07:37;;;;;;;6.95;2.95;;;;;;;-148.56;100.00;61375.16;4963196;28;20535;-26
2021/04/28 14:11:01;;;;;;;4.93;2.88;;;;;;;-148.56;100.00;61375.16;4967507;28;20416;-26
2021/04/28 14:14:25;;;;;;;12.55;4.90;;;;;;;-148.56;100.00;61375.16;4971879;28;20025;-29
2021/04/28 14:17:49;;;;;;;9.45;3.53;;;;;;;-148.56;100.00;61375.16;4963041;28;20138;-28
2021/04/28 14:21:13;;;;;;;6.20;3.15;;;;;;;-148.56;100.00;61375.16;4958748;28;20045;-30
2021/04/28 14:24:37;;;;;;;10.18;2.65;;;;;;;-148.56;100.00;61375.16;4970582;28;20030;-30
2021/04/28 14:28:01;;;;;;;7.88;2.95;;;;;;;-148.56;100.00;61375.16;4972799;28;20041;-29
2021/04/28 14:31:25;;;;;;;6.63;2.70;;;;;;;-148.56;100.00;61375.16;4965038;28;20046;-31
2021/04/28 14:34:49;;;;;;;6.63;2.80;;;;;;;-148.56;100.00;61375.16;4964335;28;20030;-30
2021/04/28 14:38:13;;;;;;;7.53;2.65;;;;;;;-148.56;100.00;61375.16;4966923;28;20037;-29
2021/04/28 14:41:37;;;;;;;3.67;2.20;;;;;;;-148.56;100.00;61375.16;4968167;28;20570;-22
2021/04/28 14:45:01;;;;;;;7.57;2.83;;;;;;;-148.56;100.00;61375.16;4964024;28;20058;-30
2021/04/28 14:48:25;;;;;;;4.13;2.50;;;;;;;-148.56;100.00;61375.16;4960873;28;20128;-31
2021/04/28 14:51:50;;;;;;;3.88;2.10;;;;;;;-148.56;100.00;61375.16;4960846;28;20070;-27
2021/04/28 14:55:14;;;;;;;9.05;3.35;;;;;;;-148.56;100.00;61375.16;4965387;28;20030;-25
2021/04/28 14:58:42;;;;;;;8.73;3.10;;;;;;;-148.56;100.00;61375.16;4971881;28;20113;-30
2021/04/28 15:02:06;;;;;;;13.60;3.78;;;;;;;-148.56;100.00;61375.16;4979473;28;20030;-31
2021/04/28 15:05:30;;;;;;;8.00;3.35;;;;;;;-148.56;100.00;61375.16;4968307;28;20030;-28
2021/04/28 15:08:53;;;;;;;8.30;3.90;;;;;;;-148.56;100.00;61375.16;4964123;28;20031;-25
2021/04/28 15:12:17;;;;;;;5.80;2.92;;;;;;;-148.56;100.00;61375.16;4964389;28;20037;-33
2021/04/28 15:15:41;;;;;;;8.35;3.50;;;;;;;-148.56;100.00;61375.16;4963625;28;20152;-31
2021/04/28 15:19:05;;;;;;;11.52;4.50;;;;;;;-148.56;100.00;61375.16;4968044;28;20096;-29
2021/04/28 15:22:29;;;;;;;7.35;3.83;;;;;;;-148.56;100.00;61375.16;4969039;28;20034;-26
2021/04/28 15:25:53;;;;;;;11.07;4.70;;;;;;;-148.56;100.00;61375.16;4971561;28;20069;-27
2021/04/28 15:29:19;;;;;;;6.78;3.60;;;;;;;-148.56;100.00;61375.16;4969615;28;20026;-32
2021/04/28 15:32:43;;;;;;;9.05;3.88;;;;;;;-148.56;100.00;61375.16;4966958;28;20041;-31